Time;durP1;ratioP1;P1;durP2;ratioP2;P2;SDS_P1;SDS_P2;PMS_P1;PMS_P2;Temp;Humidity;BMP_temperature;BMP_pressure;BME280_temperature;BME280_humidity;BME280_pressure;Samples;Min_cycle;Max_cycle;Signal;HPM_P1;HPM_P2
2022/06/09 00:00:14;;;;;;;9.25;5.83;;;;;;;19.26;75.87;98359.17;1663141;85;21004;-79
2022/06/09 00:02:44;;;;;;;12.65;5.97;;;;;;;19.28;76.05;98358.10;1664249;86;21091;-79
2022/06/09 00:05:12;;;;;;;11.70;6.67;;;;;;;19.33;76.35;98353.80;1667193;86;21063;-80
2022/06/09 00:07:39;;;;;;;12.33;5.97;;;;;;;19.37;76.01;98361.02;1664483;86;21024;-80
2022/06/09 00:10:11;;;;;;;13.98;6.55;;;;;;;19.37;76.29;98361.02;1662400;86;21012;-79
2022/06/09 00:12:38;;;;;;;10.78;6.92;;;;;;;19.38;76.50;98358.77;1664554;86;21012;-79
2022/06/09 00:15:08;;;;;;;13.62;7.00;;;;;;;19.36;74.50;98360.64;1667313;86;21063;-80
2022/06/09 00:17:35;;;;;;;12.78;6.58;;;;;;;19.27;76.63;98352.45;1664705;85;21032;-80
2022/06/09 00:20:03;;;;;;;12.68;7.45;;;;;;;19.24;77.07;98351.86;1664423;86;21019;-79
2022/06/09 00:22:30;;;;;;;11.00;6.40;;;;;;;19.20;77.89;98344.64;1667504;85;21515;-79
2022/06/09 00:24:57;;;;;;;13.85;7.42;;;;;;;19.18;77.86;98347.00;1664318;86;21040;-79
2022/06/09 00:27:25;;;;;;;14.05;6.53;;;;;;;19.16;77.41;98355.50;1664616;86;21484;-80
2022/06/09 00:29:52;;;;;;;12.10;6.78;;;;;;;19.17;76.22;98355.39;1664335;86;21362;-83
2022/06/09 00:32:18;;;;;;;10.32;6.92;;;;;;;19.11;76.17;98356.32;1662508;86;21487;-79
2022/06/09 00:34:45;;;;;;;10.30;6.67;;;;;;;19.05;76.63;98360.23;1664499;86;21024;-82
2022/06/09 00:37:12;;;;;;;12.00;7.05;;;;;;;19.01;78.33;98365.36;1664433;86;21060;-82
2022/06/09 00:39:39;;;;;;;11.80;6.95;;;;;;;19.02;78.23;98360.44;1654060;85;21018;-81
2022/06/09 00:42:10;;;;;;;12.30;6.80;;;;;;;19.07;78.08;98350.42;1650016;86;21072;-80
2022/06/09 00:44:38;;;;;;;14.65;6.90;;;;;;;19.10;78.22;98357.25;1664602;86;21020;-81
2022/06/09 00:47:27;;;;;;;11.57;7.10;;;;;;;19.13;77.96;98361.00;1666758;86;21571;-81
2022/06/09 00:50:05;;;;;;;11.38;6.60;;;;;;;19.15;79.13;98357.30;1669797;86;21066;-80
2022/06/09 00:52:39;;;;;;;9.58;6.30;;;;;;;19.17;78.49;98363.30;1666022;86;21005;-80
2022/06/09 00:55:13;;;;;;;10.03;6.20;;;;;;;19.18;78.05;98366.31;1665171;86;21089;-79
2022/06/09 00:57:48;;;;;;;9.68;5.90;;;;;;;19.21;77.64;98363.44;1667270;86;21043;-80
2022/06/09 01:00:19;;;;;;;12.43;6.50;;;;;;;19.20;77.43;98363.09;1667931;86;21075;-79
2022/06/09 01:02:46;;;;;;;9.73;6.47;;;;;;;19.20;77.53;98360.45;1664687;85;21076;-79
2022/06/09 01:05:16;;;;;;;10.98;7.17;;;;;;;19.22;77.75;98359.03;1665019;85;21028;-80
2022/06/09 01:07:47;;;;;;;13.62;8.03;;;;;;;19.22;77.38;98362.50;1667033;86;21079;-79
2022/06/09 01:10:14;;;;;;;12.93;6.85;;;;;;;19.20;78.09;98362.23;1661841;86;21027;-80
2022/06/09 01:12:45;;;;;;;9.13;7.33;;;;;;;19.17;77.43;98355.88;1667661;86;21031;-79
2022/06/09 01:15:23;;;;;;;15.08;7.80;;;;;;;19.11;77.30;98355.84;1665039;86;22234;-79
2022/06/09 01:18:33;;;;;;;13.22;6.90;;;;;;;19.05;77.29;98358.91;1664179;86;21012;-82
2022/06/09 01:21:26;;;;;;;11.88;7.67;;;;;;;19.02;77.41;98363.07;1659408;86;20996;-79
2022/06/09 01:24:18;;;;;;;11.75;7.20;;;;;;;19.02;78.56;98363.07;1664491;86;21547;-79
2022/06/09 01:27:02;;;;;;;12.70;6.97;;;;;;;19.01;78.65;98365.36;1664912;86;21107;-78
2022/06/09 01:29:50;;;;;;;14.25;7.83;;;;;;;19.03;77.85;98366.09;1657398;86;22185;-80
2022/06/09 01:32:24;;;;;;;10.80;6.47;;;;;;;19.03;78.01;98364.28;1660542;86;21081;-79
2022/06/09 01:35:11;;;;;;;11.55;6.40;;;;;;;19.02;77.95;98361.75;1659461;85;21006;-78
2022/06/09 01:37:45;;;;;;;12.55;6.67;;;;;;;19.01;78.50;98367.98;1664624;86;21503;-80
2022/06/09 01:40:16;;;;;;;12.50;7.17;;;;;;;18.99;78.04;98356.72;1667115;85;21555;-79
2022/06/09 01:42:50;;;;;;;15.20;6.80;;;;;;;19.01;77.22;98356.14;1667942;86;21051;-79
2022/06/09 01:45:43;;;;;;;11.43;7.03;;;;;;;19.02;77.86;98360.44;1667136;85;20980;-79
2022/06/09 01:48:15;;;;;;;11.97;6.80;;;;;;;19.03;77.80;98352.91;1680403;85;21077;-80
2022/06/09 01:50:56;;;;;;;10.65;6.87;;;;;;;19.05;78.07;98357.11;1662550;86;20996;-81
2022/06/09 01:53:37;;;;;;;14.50;7.22;;;;;;;19.05;77.46;98354.96;1643403;86;21039;-80
2022/06/09 01:56:18;;;;;;;14.03;7.10;;;;;;;19.03;78.04;98355.55;1674048;85;21049;-81
2022/06/09 01:58:56;;;;;;;13.93;6.75;;;;;;;18.99;77.58;98354.92;1634934;87;21556;-79
2022/06/09 02:01:30;;;;;;;14.20;7.33;;;;;;;18.97;77.70;98358.62;1662953;86;21111;-79
2022/06/09 02:04:01;;;;;;;13.55;6.50;;;;;;;18.95;77.87;98357.41;1647031;86;21040;-80
2022/06/09 02:06:29;;;;;;;10.75;6.50;;;;;;;18.96;78.28;98359.56;1662995;86;21027;-80
2022/06/09 02:08:56;;;;;;;16.48;6.47;;;;;;;18.97;78.73;98355.51;1662931;86;21558;-80
2022/06/09 02:11:23;;;;;;;11.55;5.58;;;;;;;18.98;78.45;98354.57;1663110;86;21004;-80
2022/06/09 02:13:53;;;;;;;12.80;7.28;;;;;;;18.96;78.26;98352.52;1663304;86;21036;-80
2022/06/09 02:16:22;;;;;;;12.93;7.47;;;;;;;18.94;78.35;98358.83;1662764;86;21600;-80
2022/06/09 02:18:53;;;;;;;14.60;7.35;;;;;;;18.91;78.23;98365.65;1662866;86;21035;-81
2022/06/09 02:21:37;;;;;;;19.85;7.70;;;;;;;18.86;78.28;98362.87;1665196;86;21040;-80
2022/06/09 02:24:05;;;;;;;14.90;7.60;;;;;;;18.85;78.61;98360.34;1663383;86;21563;-80
2022/06/09 02:26:31;;;;;;;13.90;7.25;;;;;;;18.75;78.51;98360.59;1662761;86;21041;-79
2022/06/09 02:28:58;;;;;;;11.03;7.80;;;;;;;18.67;79.68;98357.17;1662540;86;21004;-79
2022/06/09 02:31:25;;;;;;;13.43;7.78;;;;;;;18.59;79.40;98366.09;1661446;86;21591;-81
2022/06/09 02:33:54;;;;;;;14.58;7.35;;;;;;;18.54;78.41;98360.28;1664458;85;21028;-80
2022/06/09 02:36:21;;;;;;;11.90;7.72;;;;;;;18.46;78.34;98367.39;1662946;86;21046;-79
2022/06/09 02:38:49;;;;;;;12.45;7.25;;;;;;;18.40;79.17;98368.68;1662936;86;21024;-81
2022/06/09 02:41:16;;;;;;;12.58;7.75;;;;;;;18.32;79.10;98363.56;1653027;86;21021;-79
2022/06/09 02:43:43;;;;;;;12.50;7.40;;;;;;;18.26;80.29;98359.10;1661012;86;21059;-80
2022/06/09 02:46:11;;;;;;;13.20;7.72;;;;;;;18.22;80.33;98364.66;1643368;86;21087;-80
2022/06/09 02:48:38;;;;;;;10.28;8.15;;;;;;;18.19;80.35;98356.98;1661729;86;21512;-79
2022/06/09 02:51:27;;;;;;;12.98;7.28;;;;;;;18.16;80.18;98355.39;1662358;86;21080;-79
2022/06/09 02:53:55;;;;;;;17.27;7.00;;;;;;;18.13;79.01;98356.09;1662368;86;21020;-80
2022/06/09 02:56:23;;;;;;;10.08;6.42;;;;;;;18.10;79.70;98358.44;1662961;85;21020;-80
2022/06/09 02:58:51;;;;;;;11.10;6.70;;;;;;;18.06;80.93;98367.48;1663196;85;21007;-78
2022/06/09 03:01:19;;;;;;;12.10;6.83;;;;;;;18.02;79.76;98368.16;1663479;85;21079;-80
2022/06/09 03:03:46;;;;;;;14.03;6.45;;;;;;;18.02;79.15;98362.06;1663480;85;21058;-79
2022/06/09 03:06:12;;;;;;;11.88;5.78;;;;;;;17.96;79.60;98367.73;1663646;86;21044;-79
2022/06/09 03:08:39;;;;;;;9.05;6.00;;;;;;;17.94;79.53;98371.77;1663372;85;21020;-79
2022/06/09 03:11:06;;;;;;;10.03;5.37;;;;;;;17.89;79.64;98368.63;1663686;86;21016;-80
2022/06/09 03:13:33;;;;;;;11.40;5.80;;;;;;;17.85;80.72;98371.92;1663500;86;21031;-79
2022/06/09 03:15:59;;;;;;;10.45;6.15;;;;;;;17.87;79.82;98371.83;1659931;86;22249;-80
2022/06/09 03:18:26;;;;;;;12.23;6.08;;;;;;;17.86;80.42;98378.02;1640193;86;21066;-79
2022/06/09 03:20:53;;;;;;;12.78;6.30;;;;;;;17.82;82.05;98374.71;1652247;86;21007;-79
2022/06/09 03:23:20;;;;;;;10.90;6.15;;;;;;;17.82;81.88;98379.97;1655501;86;21547;-80
2022/06/09 03:25:47;;;;;;;10.98;6.20;;;;;;;17.82;81.06;98375.19;1656184;86;21039;-80
2022/06/09 03:28:15;;;;;;;12.33;6.47;;;;;;;17.84;80.76;98374.66;1647329;85;21495;-80
2022/06/09 03:30:41;;;;;;;13.10;6.65;;;;;;;17.77;81.71;98377.30;1661340;86;20984;-79
2022/06/09 03:33:08;;;;;;;12.33;6.30;;;;;;;17.74;82.04;98371.75;1663638;86;21000;-79
2022/06/09 03:35:35;;;;;;;10.13;6.78;;;;;;;17.73;81.53;98370.56;1663470;86;21019;-80
2022/06/09 03:38:02;;;;;;;14.25;6.58;;;;;;;17.76;81.43;98370.34;1663619;86;20984;-79
2022/06/09 03:40:30;;;;;;;11.65;6.55;;;;;;;17.79;81.49;98380.67;1663624;86;21043;-79
2022/06/09 03:43:02;;;;;;;13.30;6.22;;;;;;;17.78;81.28;98376.34;1661968;86;21003;-79
2022/06/09 03:45:28;;;;;;;11.03;5.90;;;;;;;17.86;81.15;98378.85;1662262;86;21531;-79
2022/06/09 03:47:55;;;;;;;10.90;5.85;;;;;;;17.91;81.14;98372.00;1663957;86;21067;-79
2022/06/09 03:50:25;;;;;;;12.20;6.12;;;;;;;17.97;81.08;98367.64;1663817;86;21075;-80
2022/06/09 03:52:53;;;;;;;11.80;6.90;;;;;;;18.06;80.62;98368.34;1662902;86;21555;-79
2022/06/09 03:55:20;;;;;;;12.55;6.65;;;;;;;18.16;81.08;98376.91;1663934;86;20988;-79
2022/06/09 03:57:47;;;;;;;10.53;6.70;;;;;;;18.27;80.51;98370.46;1663359;85;21059;-79
2022/06/09 04:00:22;;;;;;;11.50;7.62;;;;;;;18.37;80.47;98374.62;1662844;86;21079;-79
2022/06/09 04:02:49;;;;;;;13.75;7.20;;;;;;;18.52;79.90;98375.34;1662784;86;21012;-80
2022/06/09 04:05:16;;;;;;;15.32;7.17;;;;;;;18.55;79.37;98377.30;1663068;86;21016;-79
2022/06/09 04:07:44;;;;;;;14.35;7.10;;;;;;;18.63;79.12;98374.14;1663147;86;21020;-80
2022/06/09 04:10:18;;;;;;;14.25;7.70;;;;;;;18.70;79.65;98379.32;1663054;86;20988;-79
2022/06/09 04:12:45;;;;;;;14.20;7.65;;;;;;;18.77;78.58;98379.27;1662636;86;21587;-80
2022/06/09 04:15:13;;;;;;;14.75;7.78;;;;;;;18.81;78.42;98372.88;1644079;86;21024;-80
2022/06/09 04:17:40;;;;;;;13.28;7.85;;;;;;;18.87;78.01;98375.55;1662861;86;21591;-79
2022/06/09 04:20:09;;;;;;;12.78;7.90;;;;;;;18.89;77.67;98372.33;1658323;86;20996;-79
2022/06/09 04:22:35;;;;;;;13.32;7.30;;;;;;;18.91;77.44;98372.23;1662736;86;21531;-79
2022/06/09 04:25:03;;;;;;;13.28;7.10;;;;;;;18.90;76.99;98374.03;1662958;86;21052;-80
2022/06/09 04:27:30;;;;;;;11.80;7.33;;;;;;;18.96;77.48;98372.73;1663378;86;21032;-80
2022/06/09 04:29:57;;;;;;;15.50;7.78;;;;;;;19.01;77.16;98373.26;1662757;86;21520;-79
2022/06/09 04:32:25;;;;;;;11.55;7.40;;;;;;;19.05;77.05;98361.06;1662819;86;21023;-79
2022/06/09 04:34:52;;;;;;;10.10;6.80;;;;;;;19.06;77.03;98366.72;1662756;86;22522;-80
2022/06/09 04:37:19;;;;;;;12.15;6.58;;;;;;;19.09;76.84;98361.70;1663092;86;21021;-80
2022/06/09 04:39:46;;;;;;;14.85;8.03;;;;;;;19.11;76.75;98360.27;1662727;86;21032;-80
2022/06/09 04:42:13;;;;;;;16.57;7.35;;;;;;;19.12;76.55;98360.17;1663457;86;21016;-79
2022/06/09 04:44:41;;;;;;;14.23;9.38;;;;;;;19.17;76.43;98361.98;1663315;86;21044;-80
2022/06/09 04:47:07;;;;;;;15.05;8.50;;;;;;;19.17;76.23;98360.66;1663498;86;20985;-80
2022/06/09 04:49:34;;;;;;;11.55;7.55;;;;;;;19.17;76.12;98361.98;1678509;85;21041;-80
2022/06/09 04:52:01;;;;;;;15.72;8.65;;;;;;;19.21;75.80;98363.44;1669448;85;21523;-80
2022/06/09 04:54:28;;;;;;;15.72;9.18;;;;;;;19.21;75.39;98365.24;1664578;86;21048;-80
2022/06/09 04:56:54;;;;;;;16.82;9.10;;;;;;;19.22;75.55;98365.14;1667925;85;21012;-80
2022/06/09 04:59:21;;;;;;;14.95;6.85;;;;;;;19.26;75.37;98369.23;1664116;86;21056;-81
2022/06/09 05:01:48;;;;;;;10.48;7.10;;;;;;;19.34;74.85;98366.05;1656892;86;21055;-80
2022/06/09 05:04:14;;;;;;;17.82;7.28;;;;;;;19.39;74.50;98370.97;1664795;86;21088;-80
2022/06/09 05:06:41;;;;;;;13.00;7.92;;;;;;;19.41;74.71;98372.53;1667731;85;21028;-79
2022/06/09 05:09:08;;;;;;;12.88;7.28;;;;;;;19.47;74.36;98369.93;1667279;85;21072;-80
2022/06/09 05:11:35;;;;;;;12.15;7.42;;;;;;;19.50;74.50;98363.13;1664898;85;20973;-79
2022/06/09 05:14:01;;;;;;;15.88;8.05;;;;;;;19.54;74.49;98372.50;1664986;86;21004;-80
2022/06/09 05:16:28;;;;;;;12.82;7.70;;;;;;;19.62;74.69;98375.41;1664837;86;21059;-80
2022/06/09 05:18:55;;;;;;;17.85;6.85;;;;;;;19.68;74.60;98370.99;1664897;86;21052;-79
2022/06/09 05:21:21;;;;;;;13.10;7.72;;;;;;;19.71;74.62;98368.63;1664879;86;20984;-80
2022/06/09 05:23:48;;;;;;;11.65;7.28;;;;;;;19.77;74.76;98373.44;1680013;85;20994;-80
2022/06/09 05:26:16;;;;;;;12.82;6.97;;;;;;;19.88;74.79;98360.80;1666052;86;21019;-80
2022/06/09 05:28:43;;;;;;;9.63;6.50;;;;;;;20.00;74.75;98369.59;1665091;86;21068;-79
2022/06/09 05:31:10;;;;;;;14.28;6.75;;;;;;;20.13;74.69;98364.20;1664621;86;21508;-79
2022/06/09 05:33:37;;;;;;;15.25;7.87;;;;;;;20.31;74.33;98374.67;1666288;85;20992;-79
2022/06/09 05:36:05;;;;;;;14.80;8.00;;;;;;;20.35;74.08;98361.63;1665028;86;20996;-80
2022/06/09 05:46:49;;;;;;;15.32;6.53;;;;;;;20.74;72.84;98370.06;1664320;85;21027;-80
2022/06/09 05:49:17;;;;;;;11.85;6.75;;;;;;;20.81;71.81;98372.59;1662344;86;21005;-80
2022/06/09 05:51:44;;;;;;;12.90;6.42;;;;;;;20.89;71.92;98371.13;1666277;86;21027;-80
2022/06/09 05:54:11;;;;;;;13.35;6.37;;;;;;;20.98;71.42;98369.09;1675067;85;21030;-80
2022/06/09 05:56:38;;;;;;;14.23;7.10;;;;;;;21.01;70.61;98364.90;1667519;85;21692;-79
2022/06/09 05:59:06;;;;;;;25.37;7.75;;;;;;;21.01;70.85;98363.58;1667655;86;21039;-80
2022/06/09 06:01:33;;;;;;;12.30;7.05;;;;;;;21.01;70.82;98359.12;1649207;86;21039;-80
2022/06/09 06:04:02;;;;;;;12.00;6.97;;;;;;;21.04;70.44;98355.39;1668401;86;21032;-79
2022/06/09 06:06:35;;;;;;;13.08;6.97;;;;;;;21.02;70.13;98354.67;1665424;86;21008;-81
2022/06/09 06:09:06;;;;;;;12.65;7.25;;;;;;;21.02;70.25;98348.06;1664492;86;21543;-79
2022/06/09 06:11:35;;;;;;;14.20;7.10;;;;;;;21.03;70.19;98352.41;1662310;86;21260;-81
2022/06/09 06:14:03;;;;;;;12.03;6.20;;;;;;;21.06;70.22;98356.10;1666056;85;21048;-82
2022/06/09 06:16:30;;;;;;;13.30;6.53;;;;;;;21.12;70.55;98354.78;1662291;85;21067;-80
2022/06/09 06:18:57;;;;;;;12.18;6.25;;;;;;;21.21;70.34;98346.95;1667361;85;21004;-82
2022/06/09 06:21:25;;;;;;;14.05;6.60;;;;;;;21.31;70.23;98348.83;1662833;85;21039;-79
2022/06/09 06:23:53;;;;;;;9.75;6.20;;;;;;;21.39;70.05;98345.94;1664454;85;21029;-80
2022/06/09 06:26:20;;;;;;;10.32;6.00;;;;;;;21.45;70.21;98348.11;1666994;85;21051;-80
2022/06/09 06:28:47;;;;;;;10.40;6.17;;;;;;;21.55;70.09;98351.33;1660288;85;22856;-79
2022/06/09 06:31:15;;;;;;;11.65;5.78;;;;;;;21.67;70.06;98348.16;1660657;85;21078;-79
2022/06/09 06:33:41;;;;;;;10.25;6.85;;;;;;;21.80;69.53;98346.16;1650076;87;21545;-79
2022/06/09 06:36:10;;;;;;;12.53;6.53;;;;;;;21.91;69.48;98342.14;1660721;85;21344;-80
2022/06/09 06:38:38;;;;;;;17.15;6.55;;;;;;;22.02;69.55;98335.47;1658382;85;21040;-80
2022/06/09 06:41:07;;;;;;;11.33;6.42;;;;;;;22.14;68.53;98340.19;1662921;85;21036;-80
2022/06/09 06:43:34;;;;;;;13.45;7.15;;;;;;;22.23;68.60;98341.23;1661638;85;21059;-79
2022/06/09 06:46:02;;;;;;;9.43;6.47;;;;;;;22.29;68.04;98341.23;1657133;85;21051;-79
2022/06/09 06:48:31;;;;;;;13.43;8.15;;;;;;;22.36;67.92;98340.58;1664520;85;21052;-80
2022/06/09 06:50:58;;;;;;;15.53;6.72;;;;;;;22.45;67.80;98344.23;1659245;83;21564;-82
2022/06/09 06:53:25;;;;;;;10.95;6.62;;;;;;;22.54;67.48;98340.80;1660403;86;21072;-79
2022/06/09 06:55:52;;;;;;;17.17;7.08;;;;;;;22.63;67.21;98339.16;1659104;86;20957;-83
2022/06/09 06:58:19;;;;;;;11.30;6.62;;;;;;;22.68;66.28;98341.39;1676343;84;21003;-81
2022/06/09 07:00:45;;;;;;;13.00;6.45;;;;;;;22.70;66.29;98336.33;1661246;86;20982;-82
2022/06/09 07:03:12;;;;;;;14.70;6.80;;;;;;;22.75;66.28;98338.08;1662184;85;21219;-81
2022/06/09 07:05:39;;;;;;;8.50;6.15;;;;;;;22.76;65.55;98335.80;1661877;86;21036;-82
2022/06/09 07:08:07;;;;;;;10.03;7.12;;;;;;;22.82;65.96;98337.08;1661972;86;21036;-81
2022/06/09 07:10:35;;;;;;;10.82;6.87;;;;;;;22.88;65.29;98333.88;1660931;86;21008;-81
2022/06/09 07:13:04;;;;;;;9.73;7.05;;;;;;;22.88;64.31;98336.53;1634165;87;21069;-82
2022/06/09 07:15:30;;;;;;;8.28;5.90;;;;;;;22.84;63.78;98332.48;1655186;86;21102;-81
2022/06/09 07:17:57;;;;;;;9.63;5.97;;;;;;;22.90;64.49;98333.72;1661970;86;21012;-82
2022/06/09 07:20:24;;;;;;;8.08;5.25;;;;;;;22.95;63.89;98334.17;1659489;86;21026;-81
2022/06/09 07:22:51;;;;;;;8.75;5.40;;;;;;;22.99;63.92;98342.20;1660343;86;21020;-80
2022/06/09 07:25:19;;;;;;;7.90;5.53;;;;;;;23.06;63.67;98340.73;1661433;86;21040;-81
2022/06/09 07:27:47;;;;;;;9.58;5.37;;;;;;;23.14;62.81;98338.69;1661126;86;21008;-81
2022/06/09 07:30:15;;;;;;;8.33;5.03;;;;;;;23.22;60.63;98331.75;1658611;86;21051;-81
2022/06/09 07:32:43;;;;;;;9.10;5.03;;;;;;;23.22;61.14;98334.41;1660650;86;21024;-81
2022/06/09 07:35:14;;;;;;;7.75;5.00;;;;;;;23.29;61.63;98325.40;1661410;86;21375;-81
2022/06/09 07:37:41;;;;;;;8.00;4.65;;;;;;;23.33;60.41;98331.27;1647747;86;21040;-81
2022/06/09 07:40:10;;;;;;;7.60;4.95;;;;;;;23.34;59.18;98328.98;1661459;86;21313;-80
2022/06/09 07:42:37;;;;;;;8.93;4.58;;;;;;;23.40;60.52;98317.33;1660925;85;21077;-80
2022/06/09 07:45:09;;;;;;;8.80;4.87;;;;;;;23.51;60.77;98322.14;1661293;86;20989;-81
2022/06/09 07:47:37;;;;;;;7.47;4.37;;;;;;;23.59;59.18;98320.45;1657977;85;21091;-80
2022/06/09 07:50:07;;;;;;;11.68;4.53;;;;;;;23.58;59.05;98324.09;1662167;86;20980;-81
2022/06/09 07:52:34;;;;;;;6.95;4.40;;;;;;;23.66;59.64;98322.08;1661496;84;21360;-81
2022/06/09 07:55:01;;;;;;;9.10;5.15;;;;;;;23.72;58.99;98317.53;1661916;86;20992;-81
2022/06/09 07:57:28;;;;;;;6.17;4.55;;;;;;;23.77;58.42;98325.06;1661848;85;22209;-80
2022/06/09 07:59:55;;;;;;;11.40;5.00;;;;;;;23.83;58.84;98323.20;1653981;86;21068;-81
2022/06/09 08:02:22;;;;;;;13.53;8.20;;;;;;;23.89;58.23;98324.45;1662200;86;21020;-81
2022/06/09 08:04:50;;;;;;;11.25;5.40;;;;;;;23.93;58.48;98320.03;1660475;86;21016;-80
2022/06/09 08:07:16;;;;;;;10.82;4.42;;;;;;;23.97;58.43;98317.94;1660101;86;21039;-81
2022/06/09 08:09:43;;;;;;;6.28;3.50;;;;;;;24.07;57.99;98323.23;1661600;86;21088;-80
2022/06/09 08:12:10;;;;;;;6.30;3.98;;;;;;;24.17;57.84;98316.94;1656270;86;21019;-80
2022/06/09 08:14:37;;;;;;;7.22;3.47;;;;;;;24.27;55.37;98314.73;1661448;86;21001;-80
2022/06/09 08:17:05;;;;;;;7.30;3.42;;;;;;;24.34;54.81;98319.31;1636474;86;21054;-81
2022/06/09 08:19:32;;;;;;;5.92;3.60;;;;;;;24.41;56.04;98308.94;1661485;86;21005;-80
2022/06/09 08:21:59;;;;;;;6.00;3.30;;;;;;;24.47;53.84;98304.87;1661788;86;21002;-80
2022/06/09 08:24:26;;;;;;;4.53;3.08;;;;;;;24.54;54.07;98306.00;1661880;86;21012;-85
2022/06/09 08:26:52;;;;;;;7.67;3.33;;;;;;;24.60;54.41;98302.76;1659905;86;21052;-81
2022/06/09 08:29:19;;;;;;;7.70;2.98;;;;;;;24.67;54.87;98310.50;1661913;86;21028;-80
2022/06/09 08:31:46;;;;;;;5.87;3.05;;;;;;;24.68;54.93;98300.20;1659637;86;20988;-81
2022/06/09 08:34:13;;;;;;;4.42;2.90;;;;;;;24.78;54.52;98299.65;1661071;85;21056;-81
2022/06/09 08:36:39;;;;;;;9.88;3.17;;;;;;;24.82;54.95;98293.55;1659918;86;21012;-80
2022/06/09 08:39:06;;;;;;;6.72;2.92;;;;;;;24.90;53.37;98298.12;1656187;86;21015;-80
2022/06/09 08:41:38;;;;;;;7.95;3.22;;;;;;;24.85;52.88;98297.72;1643011;86;21632;-80
2022/06/09 08:44:43;;;;;;;6.20;2.70;;;;;;;24.86;53.56;98288.78;1661358;86;21612;-79
2022/06/09 08:47:42;;;;;;;8.28;2.87;;;;;;;24.87;52.13;98294.42;1660335;86;21066;-80
2022/06/09 08:50:23;;;;;;;5.25;2.40;;;;;;;25.04;53.34;98289.63;1659745;85;21063;-81
2022/06/09 08:53:08;;;;;;;4.47;2.55;;;;;;;25.18;53.44;98288.28;1658103;86;21596;-80
2022/06/09 08:55:46;;;;;;;7.55;2.92;;;;;;;25.31;52.54;98294.61;1675778;85;21088;-80
2022/06/09 08:58:20;;;;;;;5.90;2.52;;;;;;;25.43;52.16;98297.38;1676935;85;21011;-81
2022/06/09 09:00:53;;;;;;;5.25;2.75;;;;;;;25.58;51.90;98298.48;1675864;84;21014;-81
2022/06/09 09:03:31;;;;;;;6.80;2.72;;;;;;;25.66;50.15;98298.23;1675828;85;21565;-81
2022/06/09 09:06:09;;;;;;;5.08;2.75;;;;;;;25.66;50.84;98284.92;1718768;83;21001;-80
2022/06/09 09:08:38;;;;;;;6.50;2.70;;;;;;;25.79;51.08;98286.19;1676393;85;20968;-81
2022/06/09 09:11:25;;;;;;;10.25;2.95;;;;;;;25.91;51.40;98282.81;1660301;85;21032;-80
2022/06/09 09:14:02;;;;;;;6.83;3.00;;;;;;;26.04;50.95;98272.23;1675070;84;21054;-81
2022/06/09 09:17:12;;;;;;;6.50;2.47;;;;;;;26.03;48.88;98269.25;1701566;83;21533;-80
2022/06/09 09:20:02;;;;;;;4.45;2.05;;;;;;;26.14;47.46;98267.63;1700956;83;21061;-80
2022/06/09 09:23:12;;;;;;;8.03;2.65;;;;;;;26.29;48.88;98267.39;1705398;83;21541;-80
2022/06/09 09:25:47;;;;;;;8.48;2.72;;;;;;;26.49;49.70;98264.49;1707430;83;21010;-82
2022/06/09 09:28:30;;;;;;;8.03;2.45;;;;;;;26.69;48.83;98264.59;1687661;83;21529;-81
2022/06/09 09:31:20;;;;;;;5.08;2.42;;;;;;;26.81;48.08;98266.47;1717285;83;20998;-81
2022/06/09 09:33:48;;;;;;;8.13;2.40;;;;;;;26.85;46.12;98265.65;1705094;83;21042;-80
2022/06/09 09:36:29;;;;;;;3.37;2.27;;;;;;;26.93;47.39;98265.66;1716291;83;20998;-81
2022/06/09 09:39:04;;;;;;;5.78;2.50;;;;;;;27.08;45.78;98258.70;1720539;83;21033;-81
2022/06/09 09:41:36;;;;;;;9.93;6.05;;;;;;;27.22;46.96;98258.56;1704424;83;21634;-81
2022/06/09 09:44:17;;;;;;;4.80;2.40;;;;;;;27.38;46.91;98253.77;1711846;82;21014;-81
2022/06/09 09:46:52;;;;;;;5.58;2.33;;;;;;;27.51;46.01;98254.08;1706316;83;21037;-80
2022/06/09 09:49:29;;;;;;;4.85;2.58;;;;;;;27.53;43.90;98251.25;1703285;83;21138;-80
2022/06/09 09:51:59;;;;;;;7.72;2.60;;;;;;;27.61;45.14;98246.41;1697617;83;21120;-81
2022/06/09 09:54:34;;;;;;;5.90;2.22;;;;;;;27.81;45.05;98243.72;1691352;82;21014;-81
2022/06/09 09:57:17;;;;;;;3.87;2.45;;;;;;;28.01;44.45;98242.05;1707337;84;21010;-81
2022/06/09 09:59:54;;;;;;;7.92;2.30;;;;;;;28.21;44.54;98243.31;1706548;84;21022;-81
2022/06/09 10:08:40;;;;;;;6.70;2.50;;;;;;;28.19;42.35;98231.14;1702812;84;21839;-81
2022/06/09 10:14:49;;;;;;;4.45;2.50;;;;;;;28.40;42.55;98219.89;1694743;84;21026;-79
2022/06/09 10:17:24;;;;;;;4.33;2.55;;;;;;;28.50;42.79;98223.18;1706116;84;21070;-80
2022/06/09 10:20:21;;;;;;;5.95;2.33;;;;;;;28.66;42.58;98226.31;1702689;84;21090;-82
2022/06/09 10:23:10;;;;;;;5.12;2.40;;;;;;;28.82;42.45;98213.34;1629922;86;21070;-80
2022/06/09 10:26:02;;;;;;;4.95;2.22;;;;;;;28.89;40.27;98211.13;1625705;88;21108;-81
2022/06/09 10:29:02;;;;;;;5.10;2.58;;;;;;;28.84;41.80;98210.81;1675788;84;20962;-80
2022/06/09 10:32:00;;;;;;;4.72;2.40;;;;;;;28.86;41.38;98211.47;1707037;84;21006;-79
2022/06/09 10:34:49;;;;;;;4.17;2.67;;;;;;;28.90;41.35;98210.11;1707475;84;20998;-81
2022/06/09 10:37:36;;;;;;;6.20;2.75;;;;;;;29.03;40.92;98212.70;1708043;84;21003;-81
2022/06/09 10:40:33;;;;;;;5.60;2.70;;;;;;;29.31;41.60;98209.85;1614809;86;21095;-82
2022/06/09 10:43:20;;;;;;;5.15;2.40;;;;;;;29.60;41.69;98208.77;1656496;86;21062;-81
2022/06/09 10:46:00;;;;;;;7.72;3.20;;;;;;;29.83;40.93;98204.73;1653880;86;21098;-81
2022/06/09 10:57:31;;;;;;;6.85;3.37;;;;;;;30.21;38.27;98195.26;1723731;82;20998;-81
2022/06/09 11:00:13;;;;;;;7.33;2.20;;;;;;;30.28;38.17;98197.02;1721106;83;21065;-81
2022/06/09 11:02:45;;;;;;;9.53;3.07;;;;;;;30.40;38.29;98197.89;1722416;83;20994;-81
2022/06/09 11:05:15;;;;;;;11.00;3.15;;;;;;;30.47;37.33;98195.61;1701021;83;21001;-81
2022/06/09 11:07:56;;;;;;;5.70;2.30;;;;;;;30.44;36.58;98193.33;1709470;83;21029;-81
2022/06/09 11:10:52;;;;;;;4.20;2.10;;;;;;;30.44;36.61;98194.66;1715691;82;21129;-81
2022/06/09 11:13:39;;;;;;;5.25;2.50;;;;;;;30.47;36.21;98195.61;1694886;83;21537;-81
2022/06/09 11:16:13;;;;;;;4.37;2.33;;;;;;;30.53;37.27;98185.98;1715115;83;21117;-81
2022/06/09 11:19:12;;;;;;;4.10;2.30;;;;;;;30.61;36.73;98185.88;1724654;83;21005;-81
2022/06/09 11:22:05;;;;;;;5.03;2.22;;;;;;;30.70;36.42;98183.41;1717071;83;20978;-81
2022/06/09 11:24:40;;;;;;;8.00;2.20;;;;;;;30.62;36.05;98175.48;1714801;83;21036;-81
2022/06/09 11:27:27;;;;;;;10.23;1.87;;;;;;;30.57;35.65;98179.23;1694334;83;21097;-81
2022/06/09 11:30:23;;;;;;;6.97;2.00;;;;;;;30.62;35.24;98175.48;1714972;83;21065;-80
2022/06/09 11:33:15;;;;;;;3.15;1.80;;;;;;;30.73;34.04;98174.14;1707510;83;20970;-81
2022/06/09 11:36:00;;;;;;;5.80;2.40;;;;;;;30.86;34.24;98173.46;1724624;83;21021;-81
2022/06/09 11:38:52;;;;;;;4.12;2.40;;;;;;;30.96;33.47;98177.17;1703764;83;21005;-82
2022/06/09 11:41:45;;;;;;;5.72;2.47;;;;;;;31.09;33.58;98174.63;1724458;83;21108;-82
2022/06/09 11:44:29;;;;;;;4.20;1.85;;;;;;;31.20;33.53;98170.09;1724719;83;20970;-81
2022/06/09 11:47:01;;;;;;;6.40;2.10;;;;;;;31.24;33.11;98167.86;1723955;83;21014;-82
2022/06/09 11:49:45;;;;;;;11.33;5.90;;;;;;;31.34;33.33;98171.03;1724971;83;21061;-81
2022/06/09 11:52:17;;;;;;;7.37;3.08;;;;;;;31.44;32.03;98170.18;1719887;83;21510;-82
2022/06/09 11:54:58;;;;;;;5.58;2.60;;;;;;;31.37;32.80;98167.95;1709355;83;21003;-81
2022/06/09 11:57:43;;;;;;;3.90;2.00;;;;;;;31.44;32.58;98176.08;1710135;84;20967;-82
2022/06/09 12:00:38;;;;;;;3.67;1.85;;;;;;;31.51;31.72;98177.82;1698301;84;20990;-82
2022/06/09 12:03:13;;;;;;;4.85;2.00;;;;;;;31.69;31.70;98177.81;1709951;84;21015;-81
2022/06/09 12:05:58;;;;;;;5.08;1.80;;;;;;;32.03;31.17;98172.16;1698082;83;20947;-81
2022/06/09 12:09:05;;;;;;;5.12;1.85;;;;;;;32.24;29.88;98176.09;1711225;83;20979;-81
2022/06/09 12:11:54;;;;;;;5.80;1.90;;;;;;;32.36;28.77;98170.98;1707520;83;20986;-81
2022/06/09 12:14:37;;;;;;;8.58;1.87;;;;;;;32.52;27.18;98172.48;1612590;86;21087;-81
2022/06/09 12:17:24;;;;;;;4.05;1.70;;;;;;;32.61;26.82;98169.12;1662576;85;21003;-81
2022/06/09 12:19:59;;;;;;;4.70;1.90;;;;;;;32.87;27.63;98160.30;1657696;86;21050;-81
2022/06/09 12:22:44;;;;;;;5.50;1.80;;;;;;;33.29;28.27;98164.50;1661889;86;21445;-81